createdAt,value
2023-05-09T00:00:56.528Z,101089.44
2023-05-09T00:03:24.558Z,101090.75
2023-05-09T00:05:52.479Z,101080.31
2023-05-09T00:08:20.179Z,101074.78
2023-05-09T00:10:49.232Z,101070.19
2023-05-09T00:13:17.690Z,101069.34
2023-05-09T00:15:46.638Z,101069.06
2023-05-09T00:18:15.184Z,101060.97
2023-05-09T00:20:44.362Z,101060.19
2023-05-09T00:23:12.075Z,101065.28
2023-05-09T00:25:39.815Z,101056.94
2023-05-09T00:28:08.997Z,101050.41
2023-05-09T00:30:36.628Z,101040.75
2023-05-09T00:33:04.387Z,101040.97
2023-05-09T00:35:32.471Z,101045.91
2023-05-09T00:38:00.240Z,101053.28
2023-05-09T00:40:28.356Z,101053.41
2023-05-09T00:42:58.305Z,101061.72
2023-05-09T00:45:27.580Z,101050.41
2023-05-09T00:47:55.317Z,101056.41
2023-05-09T00:50:23.080Z,101040.25
2023-05-09T00:52:51.492Z,101044.22
2023-05-09T00:55:19.629Z,101041.44
2023-05-09T00:57:47.699Z,101041.94
2023-05-09T01:00:16.717Z,101031.97
2023-05-09T01:02:47.702Z,101035.13
2023-05-09T01:05:16.124Z,101030.69
2023-05-09T01:07:47.483Z,101026.69
2023-05-09T01:10:24.167Z,101021.38
2023-05-09T01:12:56.279Z,101018.75
2023-05-09T01:15:29.063Z,101021.03
2023-05-09T01:18:01.108Z,101004.31
2023-05-09T01:20:33.691Z,101008.06
2023-05-09T01:23:17.090Z,101009.91
2023-05-09T01:25:56.251Z,100997.53
2023-05-09T01:28:54.697Z,100992.44
2023-05-09T01:31:24.650Z,100987.63
2023-05-09T01:33:56.042Z,100989.56
2023-05-09T01:36:24.588Z,100992.63
2023-05-09T01:38:53.154Z,100981.38
2023-05-09T01:41:23.843Z,100976.28
2023-05-09T01:43:51.986Z,100967.81
2023-05-09T01:46:20.600Z,100964.22
2023-05-09T01:48:51.150Z,100970.16
2023-05-09T01:51:20.227Z,100966.66
2023-05-09T01:53:49.577Z,100965.09
2023-05-09T01:56:17.812Z,100953.00
2023-05-09T01:58:48.208Z,100957.72
2023-05-09T02:01:16.278Z,100958.69
2023-05-09T02:03:44.643Z,100953.56
2023-05-09T02:06:15.137Z,100959.94
2023-05-09T02:08:43.680Z,100957.28
2023-05-09T02:11:11.365Z,100954.53
2023-05-09T02:13:39.319Z,100964.31
2023-05-09T02:16:07.950Z,100965.06
2023-05-09T02:18:35.752Z,100961.94
2023-05-09T02:21:04.045Z,100965.22
2023-05-09T02:23:33.173Z,100969.09
2023-05-09T02:26:00.968Z,100962.44
2023-05-09T02:28:29.190Z,100972.00
2023-05-09T02:30:58.673Z,100963.38
2023-05-09T02:33:26.647Z,100960.31
2023-05-09T02:35:54.897Z,100950.75
2023-05-09T02:38:22.574Z,100949.06
2023-05-09T02:40:52.555Z,100952.19
2023-05-09T02:43:20.431Z,100951.00
2023-05-09T02:45:48.147Z,100946.53
2023-05-09T02:48:15.897Z,100945.22
2023-05-09T02:50:44.355Z,100935.78
2023-05-09T02:53:12.121Z,100946.41
2023-05-09T02:55:39.846Z,100943.47
2023-05-09T02:58:14.125Z,100942.50
2023-05-09T03:00:43.257Z,100937.22
2023-05-09T03:03:11.400Z,100925.44
2023-05-09T03:05:39.269Z,100921.72
2023-05-09T03:08:07.062Z,100927.63
2023-05-09T03:10:35.298Z,100927.50
2023-05-09T03:13:03.008Z,100926.53
2023-05-09T03:15:32.116Z,100920.44
2023-05-09T03:17:59.797Z,100920.09
2023-05-09T03:20:27.729Z,100906.63
2023-05-09T03:22:55.466Z,100910.88
2023-05-09T03:25:23.353Z,100906.63
2023-05-09T03:27:51.055Z,100911.47
2023-05-09T03:30:19.129Z,100914.38
2023-05-09T03:32:48.235Z,100907.81
2023-05-09T03:35:16.287Z,100906.72
2023-05-09T03:37:44.180Z,100899.69
2023-05-09T03:40:12.675Z,100899.22
2023-05-09T03:42:40.328Z,100898.09
2023-05-09T03:45:09.154Z,100900.28
2023-05-09T03:47:36.885Z,100887.81
2023-05-09T03:50:07.095Z,100889.13
2023-05-09T03:52:34.786Z,100889.13
2023-05-09T03:55:02.724Z,100891.81
2023-05-09T03:57:30.403Z,100884.28
2023-05-09T03:59:58.138Z,100886.00
2023-05-09T04:02:26.068Z,100890.81
2023-05-09T04:04:53.897Z,100880.66
2023-05-09T04:07:23.105Z,100870.22
2023-05-09T04:09:50.772Z,100866.50
2023-05-09T04:12:18.803Z,100868.91
2023-05-09T04:14:48.904Z,100871.25
2023-05-09T04:17:16.834Z,100872.16
2023-05-09T04:19:44.557Z,100873.66
2023-05-09T04:22:12.637Z,100865.13
2023-05-09T04:24:42.126Z,100865.13
2023-05-09T04:27:09.789Z,100868.88
2023-05-09T04:29:38.371Z,100876.38
2023-05-09T04:32:06.509Z,100872.94
2023-05-09T04:34:34.307Z,100874.22
2023-05-09T04:37:01.995Z,100872.28
2023-05-09T04:39:30.429Z,100871.69
2023-05-09T04:41:59.468Z,100880.88
2023-05-09T04:44:27.569Z,100877.88
2023-05-09T04:46:55.972Z,100866.16
2023-05-09T04:49:23.626Z,100864.06
2023-05-09T04:51:52.278Z,100868.97
2023-05-09T04:54:19.926Z,100860.75
2023-05-09T04:56:50.052Z,100852.88
2023-05-09T04:59:19.739Z,100852.63
2023-05-09T05:01:47.539Z,100854.44
2023-05-09T05:04:15.328Z,100856.66
2023-05-09T05:06:42.989Z,100855.78
2023-05-09T05:09:11.120Z,100857.69
2023-05-09T05:11:38.972Z,100857.75
2023-05-09T05:14:07.979Z,100854.28
2023-05-09T05:16:37.121Z,100852.84
2023-05-09T05:19:05.167Z,100846.22
2023-05-09T05:21:32.810Z,100848.97
2023-05-09T05:24:00.493Z,100848.44
2023-05-09T05:26:29.015Z,100847.50
2023-05-09T05:28:57.199Z,100845.81
2023-05-09T05:31:24.866Z,100837.78
2023-05-09T05:33:53.933Z,100834.53
2023-05-09T05:36:21.790Z,100836.66
2023-05-09T05:38:49.440Z,100840.75
2023-05-09T05:41:17.093Z,100834.44
2023-05-09T05:43:44.802Z,100836.91
2023-05-09T05:46:12.528Z,100828.41
2023-05-09T05:48:40.239Z,100828.72
2023-05-09T05:51:09.333Z,100820.91
2023-05-09T05:53:37.263Z,100818.31
2023-05-09T05:56:05.351Z,100825.53
2023-05-09T05:58:32.989Z,100822.31
2023-05-09T06:01:00.879Z,100815.28
2023-05-09T06:03:28.638Z,100817.69
2023-05-09T06:05:56.904Z,100817.88
2023-05-09T06:08:26.043Z,100817.91
2023-05-09T06:10:53.780Z,100823.38
2023-05-09T06:13:21.508Z,100810.47
2023-05-09T06:15:49.275Z,100810.03
2023-05-09T06:18:16.931Z,100806.09
2023-05-09T06:20:44.586Z,100807.16
2023-05-09T06:23:12.284Z,100804.66
2023-05-09T06:25:41.401Z,100807.91
2023-05-09T06:28:09.101Z,100804.69
2023-05-09T06:30:36.817Z,100799.78
2023-05-09T06:33:04.526Z,100801.19
2023-05-09T06:35:32.300Z,100792.34
2023-05-09T06:37:59.994Z,100789.28
2023-05-09T06:40:27.843Z,100793.66
2023-05-09T06:42:57.126Z,100784.91
2023-05-09T06:45:24.847Z,100776.88
2023-05-09T06:47:52.571Z,100776.34
2023-05-09T06:50:20.382Z,100778.28
2023-05-09T06:52:48.357Z,100769.41
2023-05-09T06:55:16.359Z,100773.03
2023-05-09T06:57:44.252Z,100773.59
2023-05-09T07:00:14.946Z,100770.63
2023-05-09T07:02:43.223Z,100767.81
2023-05-09T07:05:11.738Z,100764.34
2023-05-09T07:07:39.413Z,100760.13
2023-05-09T07:10:11.900Z,100759.25
2023-05-09T07:12:40.333Z,100755.72
2023-05-09T07:15:09.572Z,100764.56
2023-05-09T07:17:38.690Z,100760.19
2023-05-09T07:20:07.884Z,100752.31
2023-05-09T07:22:37.374Z,100744.28
2023-05-09T07:25:07.799Z,100738.97
2023-05-09T07:27:35.518Z,100732.78
2023-05-09T07:30:03.369Z,100719.91
2023-05-09T07:32:31.133Z,100719.31
2023-05-09T07:35:00.264Z,100719.63
2023-05-09T07:37:27.947Z,100724.66
2023-05-09T07:39:55.835Z,100729.31
2023-05-09T07:42:23.561Z,100724.94
2023-05-09T07:44:51.246Z,100719.16
2023-05-09T07:47:18.950Z,100710.16
2023-05-09T07:49:47.999Z,100712.00
2023-05-09T07:52:17.942Z,100699.06
2023-05-09T07:54:45.870Z,100696.53
2023-05-09T07:57:13.640Z,100690.69
2023-05-09T07:59:42.394Z,100691.38
2023-05-09T08:02:10.228Z,100687.28
2023-05-09T08:04:41.184Z,100691.81
2023-05-09T08:07:09.670Z,100683.81
2023-05-09T08:09:38.740Z,100677.78
2023-05-09T08:12:07.029Z,100686.81
2023-05-09T08:14:34.750Z,100680.09
2023-05-09T08:17:02.443Z,100673.56
2023-05-09T08:19:30.217Z,100671.81
2023-05-09T08:21:57.908Z,100667.25
2023-05-09T08:24:25.625Z,100662.25
2023-05-09T08:26:54.820Z,100657.44
2023-05-09T08:29:22.514Z,100651.50
2023-05-09T08:31:51.230Z,100646.72
2023-05-09T08:34:19.027Z,100652.97
2023-05-09T08:36:47.008Z,100652.72
2023-05-09T08:39:15.060Z,100646.75
2023-05-09T08:41:43.408Z,100640.97
2023-05-09T08:44:12.637Z,100644.53
2023-05-09T08:46:44.209Z,100654.13
2023-05-09T08:49:12.183Z,100660.41
2023-05-09T08:51:40.238Z,100654.75
2023-05-09T08:54:08.376Z,100641.63
2023-05-09T08:56:36.432Z,100637.16
2023-05-09T08:59:05.725Z,100623.91
2023-05-09T09:01:36.442Z,100622.56
2023-05-09T09:04:07.166Z,100627.09
2023-05-09T09:06:35.529Z,100621.44
2023-05-09T09:09:06.041Z,100625.34
2023-05-09T09:11:34.763Z,100619.88
2023-05-09T09:14:03.384Z,100608.94
2023-05-09T09:16:31.879Z,100604.31
2023-05-09T09:19:01.490Z,100605.94
2023-05-09T09:21:29.214Z,100596.06
2023-05-09T09:23:57.088Z,100600.56
2023-05-09T09:26:25.014Z,100599.41
2023-05-09T09:28:54.324Z,100590.50
2023-05-09T09:31:23.414Z,100593.28
2023-05-09T09:33:52.184Z,100584.75
2023-05-09T09:36:29.178Z,100589.63
2023-05-09T09:39:01.448Z,100585.34
2023-05-09T09:41:33.726Z,100578.03
2023-05-09T09:44:07.763Z,100582.31
2023-05-09T09:46:53.684Z,100572.38
2023-05-09T09:49:22.179Z,100563.94
2023-05-09T09:51:56.061Z,100570.06
2023-05-09T09:54:24.114Z,100574.72
2023-05-09T09:56:54.293Z,100572.44
2023-05-09T09:59:23.546Z,100567.25
2023-05-09T10:01:56.204Z,100550.81
2023-05-09T10:04:24.342Z,100545.56
2023-05-09T10:06:58.145Z,100538.34
2023-05-09T10:09:27.281Z,100531.00
2023-05-09T10:11:56.717Z,100539.44
2023-05-09T10:14:25.761Z,100557.28
2023-05-09T10:16:56.664Z,100555.13
2023-05-09T10:19:26.464Z,100539.41
2023-05-09T10:21:57.241Z,100541.16
2023-05-09T10:24:29.967Z,100533.25
2023-05-09T10:27:01.667Z,100530.84
2023-05-09T10:29:31.929Z,100521.91
2023-05-09T10:32:02.626Z,100528.78
2023-05-09T10:34:33.003Z,100523.84
2023-05-09T10:37:02.646Z,100528.66
2023-05-09T10:39:30.605Z,100515.94
2023-05-09T10:41:59.811Z,100511.72
2023-05-09T10:44:27.732Z,100491.47
2023-05-09T10:46:55.702Z,100481.66
2023-05-09T10:49:23.752Z,100490.38
2023-05-09T10:51:52.238Z,100488.41
2023-05-09T10:54:33.408Z,100480.31
2023-05-09T10:57:01.168Z,100472.75
2023-05-09T10:59:37.339Z,100467.69
2023-05-09T11:02:05.902Z,100462.41
2023-05-09T11:04:33.863Z,100461.09
2023-05-09T11:07:01.913Z,100456.31
2023-05-09T11:09:33.837Z,100464.50
2023-05-09T11:12:12.844Z,100467.41
2023-05-09T11:14:45.491Z,100459.28
2023-05-09T11:17:14.467Z,100448.13
2023-05-09T11:20:00.714Z,100448.63
2023-05-09T11:22:30.642Z,100446.66
2023-05-09T11:25:05.599Z,100441.66
2023-05-09T11:27:39.900Z,100441.34
2023-05-09T11:30:09.245Z,100435.50
2023-05-09T11:32:43.227Z,100436.69
2023-05-09T11:35:14.937Z,100430.03
2023-05-09T11:37:47.987Z,100418.09
2023-05-09T11:40:18.548Z,100420.25
2023-05-09T11:42:47.423Z,100414.84
2023-05-09T11:45:16.081Z,100425.75
2023-05-09T11:47:44.237Z,100420.03
2023-05-09T11:50:13.637Z,100417.75
2023-05-09T11:52:41.888Z,100412.28
2023-05-09T11:55:12.723Z,100402.88
2023-05-09T11:57:44.284Z,100397.06
2023-05-09T12:00:12.968Z,100396.63
2023-05-09T12:02:40.687Z,100384.50
2023-05-09T12:05:10.148Z,100381.38
2023-05-09T12:07:39.550Z,100368.81
2023-05-09T12:10:08.714Z,100367.50
2023-05-09T12:12:36.698Z,100363.13
2023-05-09T12:15:09.008Z,100363.63
2023-05-09T12:17:36.956Z,100356.56
2023-05-09T12:20:05.985Z,100353.41
2023-05-09T12:22:34.094Z,100353.25
2023-05-09T12:25:03.927Z,100347.75
2023-05-09T12:27:33.062Z,100342.16
2023-05-09T12:30:01.477Z,100341.44
2023-05-09T12:32:32.940Z,100334.00
2023-05-09T12:35:01.462Z,100330.88
2023-05-09T12:37:32.532Z,100317.22
2023-05-09T12:40:06.331Z,100316.41
2023-05-09T12:42:34.396Z,100323.31
2023-05-09T12:45:03.144Z,100312.69
2023-05-09T12:47:32.995Z,100310.59
2023-05-09T12:50:01.569Z,100315.41
2023-05-09T12:52:35.354Z,100319.63
2023-05-09T12:55:06.888Z,100316.06
2023-05-09T12:57:34.618Z,100313.19
2023-05-09T13:00:04.170Z,100306.03
2023-05-09T13:02:37.071Z,100305.69
2023-05-09T13:05:10.790Z,100312.25
2023-05-09T13:07:42.133Z,100298.97
2023-05-09T13:10:13.701Z,100309.22
2023-05-09T13:12:44.627Z,100314.75
2023-05-09T13:15:12.947Z,100315.16
2023-05-09T13:17:42.245Z,100309.28
2023-05-09T13:20:10.613Z,100312.25
2023-05-09T13:22:38.631Z,100303.81
2023-05-09T13:25:07.151Z,100294.03
2023-05-09T13:27:35.774Z,100306.69
2023-05-09T13:30:03.719Z,100297.84
2023-05-09T13:32:31.636Z,100285.34
2023-05-09T13:35:00.946Z,100291.72
2023-05-09T13:37:28.680Z,100288.31
2023-05-09T13:39:56.490Z,100284.09
2023-05-09T13:42:24.108Z,100283.06
2023-05-09T13:44:51.770Z,100278.19
2023-05-09T13:47:19.437Z,100279.06
2023-05-09T13:49:47.069Z,100261.41
2023-05-09T13:52:16.897Z,100269.84
2023-05-09T13:54:44.626Z,100279.78
2023-05-09T13:57:12.701Z,100264.94
2023-05-09T13:59:42.122Z,100268.00
2023-05-09T14:02:10.893Z,100280.38
2023-05-09T14:04:38.688Z,100275.16
2023-05-09T14:07:06.710Z,100262.47
2023-05-09T14:09:39.967Z,100265.66
2023-05-09T14:12:08.156Z,100267.22
2023-05-09T14:14:36.004Z,100264.34
2023-05-09T14:17:04.450Z,100259.06
2023-05-09T14:19:32.119Z,100258.16
2023-05-09T14:21:59.773Z,100257.88
2023-05-09T14:24:30.813Z,100248.38
2023-05-09T14:26:59.901Z,100253.50
2023-05-09T14:29:27.725Z,100235.81
2023-05-09T14:31:55.756Z,100230.81
2023-05-09T14:34:23.457Z,100231.66
2023-05-09T14:36:51.284Z,100234.31
2023-05-09T14:39:20.463Z,100246.34
2023-05-09T14:41:50.023Z,100232.94
2023-05-09T14:44:19.059Z,100225.25
2023-05-09T14:46:46.788Z,100229.50
2023-05-09T14:49:14.538Z,100225.38
2023-05-09T14:51:42.263Z,100233.44
2023-05-09T14:54:09.923Z,100224.81
2023-05-09T14:56:37.938Z,100223.16
2023-05-09T14:59:05.647Z,100215.63
2023-05-09T15:01:34.760Z,100224.41
2023-05-09T15:04:02.551Z,100233.25
2023-05-09T15:06:30.466Z,100227.25
2023-05-09T15:08:58.166Z,100230.84
2023-05-09T15:11:28.645Z,100225.06
2023-05-09T15:13:58.497Z,100241.00
2023-05-09T15:16:26.561Z,100234.72
2023-05-09T15:18:56.449Z,100247.22
2023-05-09T15:21:24.147Z,100241.44
2023-05-09T15:23:51.780Z,100237.97
2023-05-09T15:26:19.556Z,100231.38
2023-05-09T15:28:47.280Z,100227.06
2023-05-09T15:31:15.341Z,100230.00
2023-05-09T15:33:43.205Z,100237.44
2023-05-09T15:36:12.660Z,100241.75
2023-05-09T15:38:40.328Z,100234.00
2023-05-09T15:41:08.981Z,100229.50
2023-05-09T15:43:36.702Z,100233.25
2023-05-09T15:46:04.362Z,100229.19
2023-05-09T15:48:32.123Z,100233.50
2023-05-09T15:50:59.768Z,100225.34
2023-05-09T15:53:28.834Z,100210.03
2023-05-09T15:55:56.852Z,100206.81
2023-05-09T15:58:24.555Z,100208.34
2023-05-09T16:00:52.401Z,100200.63
2023-05-09T16:03:20.239Z,100204.13
2023-05-09T16:05:48.276Z,100193.38
2023-05-09T16:08:16.020Z,100198.72
2023-05-09T16:10:48.785Z,100194.59
2023-05-09T16:13:17.752Z,100201.91
2023-05-09T16:15:47.824Z,100199.31
2023-05-09T16:18:15.604Z,100200.31
2023-05-09T16:20:44.034Z,100198.38
2023-05-09T16:23:11.880Z,100199.00
2023-05-09T16:25:39.736Z,100189.84
2023-05-09T16:28:08.882Z,100193.13
2023-05-09T16:30:36.575Z,100188.03
2023-05-09T16:33:04.270Z,100187.69
2023-05-09T16:35:32.028Z,100195.88
2023-05-09T16:37:59.772Z,100182.56
2023-05-09T16:40:27.543Z,100197.06
2023-05-09T16:42:55.213Z,100185.81
2023-05-09T16:45:24.295Z,100176.63
2023-05-09T16:47:53.256Z,100177.22
2023-05-09T16:50:21.135Z,100160.03
2023-05-09T16:52:49.083Z,100171.19
2023-05-09T16:55:17.046Z,100164.09
2023-05-09T16:57:44.787Z,100166.84
2023-05-09T17:00:13.551Z,100156.00
2023-05-09T17:02:42.730Z,100165.25
2023-05-09T17:05:10.869Z,100166.00
2023-05-09T17:07:38.756Z,100161.63
2023-05-09T17:10:07.307Z,100164.09
2023-05-09T17:12:35.190Z,100151.03
2023-05-09T17:15:02.908Z,100161.34
2023-05-09T17:17:30.809Z,100156.06
2023-05-09T17:20:01.015Z,100152.44
2023-05-09T17:22:28.898Z,100153.66
2023-05-09T17:24:56.622Z,100154.50
2023-05-09T17:27:24.345Z,100159.00
2023-05-09T17:29:52.057Z,100155.78
2023-05-09T17:32:19.753Z,100156.84
2023-05-09T17:34:47.452Z,100152.19
2023-05-09T17:37:17.217Z,100153.41
2023-05-09T17:39:45.014Z,100148.38
2023-05-09T17:42:12.912Z,100149.50
2023-05-09T17:44:43.031Z,100148.44
2023-05-09T17:47:12.560Z,100145.63
2023-05-09T17:49:40.587Z,100140.78
2023-05-09T17:52:08.250Z,100138.91
2023-05-09T17:54:37.611Z,100135.00
2023-05-09T17:57:05.305Z,100137.63
2023-05-09T17:59:33.140Z,100137.03
2023-05-09T18:02:00.891Z,100140.00
2023-05-09T18:04:30.697Z,100129.72
2023-05-09T18:06:58.382Z,100134.38
2023-05-09T18:09:26.454Z,100126.34
2023-05-09T18:11:55.477Z,100135.59
2023-05-09T18:14:23.201Z,100144.06
2023-05-09T18:16:50.928Z,100134.41
2023-05-09T18:19:18.691Z,100136.06
2023-05-09T18:21:46.437Z,100133.31
2023-05-09T18:24:16.314Z,100137.91
2023-05-09T18:26:44.711Z,100137.06
2023-05-09T18:29:13.804Z,100135.13
2023-05-09T18:31:41.770Z,100135.25
2023-05-09T18:34:09.922Z,100130.28
2023-05-09T18:36:37.674Z,100137.53
2023-05-09T18:39:05.514Z,100137.94
2023-05-09T18:41:34.198Z,100138.47
2023-05-09T18:44:01.976Z,100134.97
2023-05-09T18:46:33.585Z,100142.38
2023-05-09T18:49:03.006Z,100140.91
2023-05-09T18:51:31.175Z,100142.56
2023-05-09T18:53:58.851Z,100146.63
2023-05-09T18:56:26.511Z,100147.97
2023-05-09T18:58:54.206Z,100150.97
2023-05-09T19:01:24.285Z,100152.34
2023-05-09T19:03:55.156Z,100149.59
2023-05-09T19:06:24.059Z,100146.53
2023-05-09T19:08:52.103Z,100150.66
2023-05-09T19:11:19.771Z,100142.88
2023-05-09T19:13:49.375Z,100143.19
2023-05-09T19:16:19.546Z,100143.81
2023-05-09T19:18:47.293Z,100141.16
2023-05-09T19:21:18.661Z,100136.50
2023-05-09T19:23:47.725Z,100131.81
2023-05-09T19:26:15.998Z,100138.38
2023-05-09T19:28:43.815Z,100131.19
2023-05-09T19:31:11.619Z,100140.19
2023-05-09T19:33:39.596Z,100136.50
2023-05-09T19:36:07.881Z,100136.53
2023-05-09T19:38:37.052Z,100144.06
2023-05-09T19:41:04.837Z,100140.97
2023-05-09T19:43:32.576Z,100147.97
2023-05-09T19:46:00.866Z,100144.63
2023-05-09T19:48:28.658Z,100144.31
2023-05-09T19:50:57.826Z,100149.09
2023-05-09T19:53:25.830Z,100142.94
2023-05-09T19:55:54.857Z,100142.66
2023-05-09T19:58:22.562Z,100140.56
2023-05-09T20:00:50.238Z,100140.47
2023-05-09T20:03:18.153Z,100136.25
2023-05-09T20:05:45.958Z,100137.25
2023-05-09T20:08:16.063Z,100137.50
2023-05-09T20:10:43.739Z,100137.41
2023-05-09T20:13:13.954Z,100139.09
2023-05-09T20:15:41.662Z,100138.25
2023-05-09T20:18:09.323Z,100139.78
2023-05-09T20:20:37.263Z,100132.59
2023-05-09T20:23:04.994Z,100132.91
2023-05-09T20:25:33.088Z,100130.09
2023-05-09T20:28:00.753Z,100126.00
2023-05-09T20:30:29.802Z,100121.94
2023-05-09T20:32:58.591Z,100131.22
2023-05-09T20:35:26.407Z,100131.22
2023-05-09T20:37:54.061Z,100126.19
2023-05-09T20:40:21.851Z,100118.34
2023-05-09T20:42:49.514Z,100122.00
2023-05-09T20:45:17.732Z,100128.44
2023-05-09T20:47:46.874Z,100123.31
2023-05-09T20:50:14.799Z,100122.56
2023-05-09T20:52:42.688Z,100122.81
2023-05-09T20:55:10.804Z,100129.25
2023-05-09T20:57:38.458Z,100118.34
2023-05-09T21:00:07.553Z,100127.03
2023-05-09T21:02:35.388Z,100123.94
2023-05-09T21:05:04.801Z,100126.59
2023-05-09T21:07:32.488Z,100118.19
2023-05-09T21:10:00.212Z,100121.16
2023-05-09T21:12:27.911Z,100119.75
2023-05-09T21:14:56.337Z,100117.09
2023-05-09T21:17:24.087Z,100117.09
2023-05-09T21:19:52.252Z,100113.03
2023-05-09T21:22:21.287Z,100112.50
2023-05-09T21:24:49.117Z,100096.63
2023-05-09T21:27:16.794Z,100104.22
2023-05-09T21:29:44.441Z,100108.84
2023-05-09T21:32:12.108Z,100097.59
2023-05-09T21:34:39.746Z,100097.22
2023-05-09T21:37:07.426Z,100099.59
2023-05-09T21:39:36.424Z,100092.00
2023-05-09T21:42:04.203Z,100086.66
2023-05-09T21:44:31.914Z,100092.28
2023-05-09T21:46:59.887Z,100087.50
2023-05-09T21:49:28.355Z,100095.91
2023-05-09T21:51:56.127Z,100090.00
2023-05-09T21:54:23.851Z,100098.22
2023-05-09T21:56:52.875Z,100090.31
2023-05-09T21:59:22.238Z,100094.66
2023-05-09T22:01:50.120Z,100086.28
2023-05-09T22:04:17.776Z,100091.09
2023-05-09T22:06:45.480Z,100088.84
2023-05-09T22:09:13.135Z,100079.75
2023-05-09T22:11:40.847Z,100088.47
2023-05-09T22:14:10.321Z,100087.13
2023-05-09T22:16:38.394Z,100092.75
2023-05-09T22:19:06.128Z,100087.81
2023-05-09T22:21:33.775Z,100084.63
2023-05-09T22:24:01.477Z,100086.59
2023-05-09T22:26:29.156Z,100081.56
2023-05-09T22:28:56.811Z,100087.44
2023-05-09T22:31:25.895Z,100090.53
2023-05-09T22:33:53.584Z,100087.44
2023-05-09T22:36:21.749Z,100077.91
2023-05-09T22:38:49.403Z,100082.69
2023-05-09T22:41:17.228Z,100074.00
2023-05-09T22:43:44.992Z,100074.53
2023-05-09T22:46:12.793Z,100076.22
2023-05-09T22:48:41.917Z,100078.34
2023-05-09T22:51:09.947Z,100084.91
2023-05-09T22:53:37.961Z,100068.91
2023-05-09T22:56:07.528Z,100072.25
2023-05-09T22:58:35.271Z,100070.88
2023-05-09T23:01:03.101Z,100071.19
2023-05-09T23:03:30.890Z,100076.03
2023-05-09T23:05:59.947Z,100075.84
2023-05-09T23:08:27.636Z,100075.25
2023-05-09T23:10:55.324Z,100069.53
2023-05-09T23:13:23.551Z,100073.88
2023-05-09T23:15:51.969Z,100068.44
2023-05-09T23:18:21.006Z,100062.53
2023-05-09T23:20:48.708Z,100061.38
2023-05-09T23:23:17.780Z,100059.81
2023-05-09T23:25:45.558Z,100047.13
2023-05-09T23:28:13.584Z,100044.63
2023-05-09T23:30:41.315Z,100047.41
2023-05-09T23:33:08.983Z,100050.47
2023-05-09T23:35:36.623Z,100046.88
2023-05-09T23:38:04.675Z,100042.47
2023-05-09T23:40:33.731Z,100049.75
2023-05-09T23:43:01.389Z,100058.31
2023-05-09T23:45:29.436Z,100044.44
2023-05-09T23:47:58.143Z,100047.84
2023-05-09T23:50:25.849Z,100059.25
2023-05-09T23:52:53.557Z,100050.06
2023-05-09T23:55:21.359Z,100047.66
2023-05-09T23:57:50.411Z,100057.50
